createdAt,value
2023-01-27T00:01:52.706Z,55.25
2023-01-27T00:04:20.624Z,51.85
2023-01-27T00:06:48.544Z,122.68
2023-01-27T00:09:16.511Z,69.38
2023-01-27T00:12:02.972Z,34.03
2023-01-27T00:14:31.099Z,52.05
2023-01-27T00:16:59.043Z,47.35
2023-01-27T00:19:29.650Z,49.97
2023-01-27T00:22:16.138Z,49.20
2023-01-27T00:24:44.151Z,51.40
2023-01-27T00:27:13.201Z,58.45
2023-01-27T00:29:41.198Z,50.88
2023-01-27T00:32:29.470Z,48.58
2023-01-27T00:34:57.620Z,53.97
2023-01-27T00:37:25.514Z,56.08
2023-01-27T00:39:53.689Z,56.22
2023-01-27T00:42:21.678Z,62.92
2023-01-27T00:45:09.636Z,58.00
2023-01-27T00:47:37.738Z,59.60
2023-01-27T00:50:06.338Z,50.72
2023-01-27T00:52:34.283Z,57.53
2023-01-27T00:55:02.913Z,47.33
2023-01-27T00:57:31.027Z,54.63
2023-01-27T00:59:59.941Z,46.58
2023-01-27T01:02:28.339Z,45.40
2023-01-27T01:04:56.596Z,43.75
2023-01-27T01:07:25.198Z,42.47
2023-01-27T01:09:53.256Z,47.72
2023-01-27T01:12:22.983Z,52.72
2023-01-27T01:14:51.523Z,37.38
2023-01-27T01:17:19.767Z,49.65
2023-01-27T01:19:47.700Z,48.83
2023-01-27T01:22:15.940Z,48.92
2023-01-27T01:24:43.932Z,51.70
2023-01-27T01:27:14.164Z,46.40
2023-01-27T01:29:42.322Z,48.88
2023-01-27T01:32:10.580Z,50.42
2023-01-27T01:34:38.915Z,31.52
2023-01-27T01:37:07.065Z,30.20
2023-01-27T01:39:36.270Z,40.70
2023-01-27T01:42:04.351Z,38.20
2023-01-27T01:44:33.089Z,34.20
2023-01-27T01:47:01.576Z,31.98
2023-01-27T01:49:39.079Z,32.78
2023-01-27T01:52:13.036Z,34.20
2023-01-27T01:54:47.497Z,36.80
2023-01-27T01:57:23.350Z,39.85
2023-01-27T02:00:04.538Z,40.80
2023-01-27T02:05:37.923Z,46.33
2023-01-27T02:08:16.500Z,46.75
2023-01-27T02:10:46.447Z,45.95
2023-01-27T02:13:14.516Z,51.47
2023-01-27T02:15:42.838Z,49.80
2023-01-27T02:18:10.900Z,50.80
2023-01-27T02:20:50.074Z,54.80
2023-01-27T02:23:41.389Z,53.70
2023-01-27T02:26:17.344Z,52.90
2023-01-27T02:28:45.935Z,53.03
2023-01-27T02:31:14.155Z,44.53
2023-01-27T02:33:42.078Z,52.35
2023-01-27T02:36:14.062Z,46.45
2023-01-27T02:38:51.918Z,49.25
2023-01-27T02:46:38.808Z,49.50
2023-01-27T02:49:08.287Z,53.58
2023-01-27T02:51:36.824Z,53.10
2023-01-27T02:54:04.835Z,49.75
2023-01-27T02:56:33.351Z,55.90
2023-01-27T02:59:01.579Z,56.83
2023-01-27T03:01:35.425Z,58.83
2023-01-27T03:04:03.896Z,51.17
2023-01-27T03:06:31.948Z,55.13
2023-01-27T03:09:00.161Z,60.88
2023-01-27T03:11:47.295Z,56.25
2023-01-27T03:14:15.460Z,60.80
2023-01-27T03:17:02.090Z,53.03
2023-01-27T03:19:55.221Z,42.53
2023-01-27T03:22:23.394Z,34.25
2023-01-27T03:24:57.146Z,38.60
2023-01-27T03:27:25.987Z,43.17
2023-01-27T03:30:13.048Z,31.63
2023-01-27T03:32:48.541Z,39.15
2023-01-27T03:35:48.690Z,27.65
2023-01-27T03:38:39.478Z,25.30
2023-01-27T03:41:26.056Z,20.05
2023-01-27T03:44:12.713Z,30.17
2023-01-27T03:46:40.861Z,42.17
2023-01-27T03:49:08.954Z,43.65
2023-01-27T03:51:36.904Z,44.08
2023-01-27T03:54:05.144Z,35.35
2023-01-27T03:56:33.064Z,32.72
2023-01-27T03:59:01.087Z,29.92
2023-01-27T04:01:29.357Z,22.58
2023-01-27T04:04:16.053Z,24.58
2023-01-27T04:07:00.996Z,29.05
2023-01-27T04:09:32.671Z,28.33
2023-01-27T04:12:02.745Z,30.98
2023-01-27T04:14:35.740Z,26.73
2023-01-27T04:17:11.651Z,32.45
2023-01-27T04:19:39.746Z,33.60
2023-01-27T04:22:09.827Z,31.30
2023-01-27T04:24:38.394Z,33.53
2023-01-27T04:27:09.968Z,28.77
2023-01-27T04:29:41.205Z,32.95
2023-01-27T04:32:11.041Z,33.83
2023-01-27T04:34:40.509Z,31.35
2023-01-27T04:37:09.875Z,33.47
2023-01-27T04:39:38.070Z,34.65
2023-01-27T04:42:06.358Z,33.90
2023-01-27T04:44:34.407Z,36.92
2023-01-27T04:47:02.554Z,32.22
2023-01-27T04:49:30.475Z,35.63
2023-01-27T04:51:58.460Z,40.90
2023-01-27T04:54:26.522Z,40.92
2023-01-27T04:57:03.579Z,43.30
2023-01-27T04:59:31.709Z,39.58
2023-01-27T05:01:59.904Z,36.08
2023-01-27T05:04:27.964Z,35.20
2023-01-27T05:06:56.036Z,35.08
2023-01-27T05:09:24.313Z,35.50
2023-01-27T05:11:52.367Z,38.15
2023-01-27T05:14:23.761Z,41.22
2023-01-27T05:16:52.243Z,34.00
2023-01-27T05:19:20.731Z,32.38
2023-01-27T05:21:48.930Z,28.85
2023-01-27T05:24:17.043Z,35.50
2023-01-27T05:26:45.171Z,29.80
2023-01-27T05:29:13.140Z,52.78
2023-01-27T05:31:41.265Z,52.88
2023-01-27T05:34:10.150Z,53.17
2023-01-27T05:36:38.133Z,59.85
2023-01-27T05:39:07.870Z,56.28
2023-01-27T05:41:37.316Z,52.67
2023-01-27T05:44:05.775Z,48.38
2023-01-27T05:46:33.882Z,51.15
2023-01-27T05:49:07.031Z,44.20
2023-01-27T05:51:37.387Z,40.85
2023-01-27T05:54:05.853Z,38.80
2023-01-27T05:56:34.158Z,37.50
2023-01-27T05:59:02.234Z,38.08
2023-01-27T06:01:32.145Z,35.28
2023-01-27T06:04:01.237Z,35.03
2023-01-27T06:06:31.099Z,36.50
2023-01-27T06:09:00.476Z,32.20
2023-01-27T06:11:28.674Z,32.28
2023-01-27T06:13:57.146Z,29.65
2023-01-27T06:16:28.825Z,37.40
2023-01-27T06:18:58.677Z,40.92
2023-01-27T06:21:27.048Z,37.75
2023-01-27T06:23:56.042Z,38.95
2023-01-27T06:26:24.214Z,38.03
2023-01-27T06:28:52.201Z,34.10
2023-01-27T06:31:22.799Z,33.22
2023-01-27T06:33:52.182Z,47.33
2023-01-27T06:36:22.582Z,38.55
2023-01-27T06:38:51.724Z,42.25
2023-01-27T06:41:58.962Z,41.45
2023-01-27T06:44:35.659Z,37.75
2023-01-27T06:48:02.076Z,40.78
2023-01-27T06:50:30.689Z,45.15
2023-01-27T06:53:04.626Z,46.83
2023-01-27T06:55:33.600Z,36.00
2023-01-27T06:58:03.165Z,29.83
2023-01-27T07:00:31.256Z,37.00
2023-01-27T07:02:59.366Z,34.10
2023-01-27T07:05:27.647Z,34.50
2023-01-27T07:07:55.587Z,33.88
2023-01-27T07:10:23.656Z,31.83
2023-01-27T07:12:51.570Z,36.97
2023-01-27T07:15:20.020Z,44.15
2023-01-27T07:17:48.482Z,43.25
2023-01-27T07:20:16.664Z,34.22
2023-01-27T07:22:44.790Z,39.90
2023-01-27T07:25:12.960Z,37.88
2023-01-27T07:27:41.205Z,39.00
2023-01-27T07:30:09.954Z,35.25
2023-01-27T07:32:37.887Z,33.35
2023-01-27T07:35:07.104Z,33.80
2023-01-27T07:37:37.297Z,33.17
2023-01-27T07:40:07.262Z,33.25
2023-01-27T07:42:35.257Z,29.13
2023-01-27T07:52:29.207Z,38.95
2023-01-27T07:54:57.310Z,34.20
2023-01-27T07:57:25.636Z,31.30
2023-01-27T07:59:55.827Z,31.00
2023-01-27T08:02:26.025Z,30.95
2023-01-27T08:04:54.932Z,31.42
2023-01-27T08:07:23.122Z,36.30
2023-01-27T08:09:51.011Z,35.33
2023-01-27T08:12:19.197Z,45.65
2023-01-27T08:14:47.389Z,54.80
2023-01-27T08:17:15.871Z,41.25
2023-01-27T08:19:43.839Z,39.08
2023-01-27T08:22:11.849Z,41.08
2023-01-27T08:24:39.851Z,34.72
2023-01-27T08:27:08.402Z,33.72
2023-01-27T08:29:36.345Z,42.40
2023-01-27T08:32:05.177Z,41.28
2023-01-27T08:34:33.504Z,32.75
2023-01-27T08:37:01.979Z,38.47
2023-01-27T08:39:30.784Z,37.88
2023-01-27T08:41:59.376Z,36.63
2023-01-27T08:44:28.529Z,28.35
2023-01-27T08:46:57.118Z,32.47
2023-01-27T08:49:25.082Z,33.30
2023-01-27T08:51:55.118Z,35.20
2023-01-27T08:54:23.087Z,42.47
2023-01-27T08:56:51.109Z,42.63
2023-01-27T08:59:19.795Z,46.22
2023-01-27T09:01:47.986Z,47.45
2023-01-27T09:04:44.544Z,52.35
2023-01-27T09:07:37.520Z,45.10
2023-01-27T09:10:15.175Z,49.97
2023-01-27T09:12:44.982Z,51.53
2023-01-27T09:15:15.070Z,53.63
2023-01-27T09:17:43.139Z,46.60
2023-01-27T09:20:12.462Z,40.10
2023-01-27T09:22:42.424Z,47.38
2023-01-27T09:25:17.044Z,46.72
2023-01-27T09:27:45.576Z,46.20
2023-01-27T09:30:15.662Z,45.92
2023-01-27T09:32:44.025Z,45.75
2023-01-27T09:35:12.475Z,42.53
2023-01-27T09:38:07.177Z,43.38
2023-01-27T09:41:09.200Z,39.47
2023-01-27T09:43:58.055Z,33.75
2023-01-27T09:47:00.149Z,37.92
2023-01-27T09:49:49.493Z,38.70
2023-01-27T09:52:46.796Z,37.95
2023-01-27T09:55:52.201Z,39.08
2023-01-27T09:58:51.229Z,38.10
2023-01-27T10:01:55.362Z,44.40
2023-01-27T10:04:44.479Z,42.88
2023-01-27T10:07:33.243Z,35.08
2023-01-27T10:10:08.021Z,47.08
2023-01-27T10:13:08.794Z,43.13
2023-01-27T10:16:04.599Z,40.63
2023-01-27T10:18:59.274Z,29.23
2023-01-27T10:21:54.931Z,32.33
2023-01-27T10:24:50.393Z,30.80
2023-01-27T10:27:23.810Z,28.20
2023-01-27T10:32:30.392Z,31.08
2023-01-27T10:35:09.275Z,31.23
2023-01-27T10:37:58.230Z,31.88
2023-01-27T10:40:48.712Z,33.50
2023-01-27T10:43:16.973Z,28.83
2023-01-27T10:45:57.371Z,26.75
2023-01-27T10:48:43.832Z,45.25
2023-01-27T10:51:22.887Z,28.38
2023-01-27T10:54:03.492Z,38.60
2023-01-27T10:56:48.827Z,26.38
2023-01-27T10:59:31.618Z,23.60
2023-01-27T11:02:12.551Z,31.17
2023-01-27T11:04:50.256Z,26.77
2023-01-27T11:07:23.004Z,29.73
2023-01-27T11:10:03.882Z,21.85
2023-01-27T11:12:37.346Z,27.48
2023-01-27T11:15:34.358Z,21.33
2023-01-27T11:18:26.321Z,23.40
2023-01-27T11:21:04.356Z,20.60
2023-01-27T11:23:42.925Z,20.95
2023-01-27T11:26:36.125Z,19.23
2023-01-27T11:29:17.033Z,22.52
2023-01-27T11:32:16.299Z,25.48
2023-01-27T11:35:39.875Z,28.65
2023-01-27T11:38:16.000Z,22.33
2023-01-27T11:40:46.014Z,22.90
2023-01-27T11:43:20.005Z,26.52
2023-01-27T11:45:50.414Z,19.67
2023-01-27T11:48:23.355Z,19.67
2023-01-27T11:50:52.395Z,18.48
2023-01-27T11:53:29.833Z,18.45
2023-01-27T11:56:02.390Z,17.52
2023-01-27T11:58:42.181Z,17.85
2023-01-27T12:01:20.845Z,18.20
2023-01-27T12:04:04.934Z,20.58
2023-01-27T12:06:45.587Z,15.55
2023-01-27T12:09:34.107Z,21.33
2023-01-27T12:12:26.153Z,20.50
2023-01-27T12:14:57.764Z,12.70
2023-01-27T12:17:42.286Z,15.63
2023-01-27T12:20:28.872Z,8.68
2023-01-27T12:23:15.222Z,6.07
2023-01-27T12:26:05.297Z,6.38
2023-01-27T12:28:40.760Z,10.75
2023-01-27T12:31:10.424Z,8.18
2023-01-27T12:33:43.332Z,6.22
2023-01-27T12:36:24.618Z,8.73
2023-01-27T12:38:55.260Z,5.25
2023-01-27T12:41:27.586Z,5.90
2023-01-27T12:44:08.401Z,6.70
2023-01-27T12:46:40.137Z,9.32
2023-01-27T12:49:15.189Z,7.95
2023-01-27T12:51:50.908Z,10.63
2023-01-27T12:54:44.737Z,10.75
2023-01-27T12:57:20.903Z,9.02
2023-01-27T12:59:52.745Z,13.77
2023-01-27T13:02:32.475Z,9.27
2023-01-27T13:05:08.293Z,8.60
2023-01-27T13:07:54.754Z,8.20
2023-01-27T13:10:55.048Z,7.90
2023-01-27T13:13:28.370Z,8.88
2023-01-27T13:16:17.509Z,9.90
2023-01-27T13:18:54.626Z,10.23
2023-01-27T13:21:29.933Z,12.85
2023-01-27T13:24:02.651Z,13.45
2023-01-27T13:26:34.547Z,9.75
2023-01-27T13:29:24.652Z,11.43
2023-01-27T13:31:58.722Z,15.07
2023-01-27T13:34:33.808Z,14.30
2023-01-27T13:37:08.633Z,39.08
2023-01-27T13:39:57.931Z,54.42
2023-01-27T13:42:50.388Z,22.08
2023-01-27T13:45:36.313Z,23.80
2023-01-27T13:48:27.022Z,18.70
2023-01-27T13:51:13.404Z,14.73
2023-01-27T13:53:42.277Z,15.02
2023-01-27T13:56:26.930Z,16.70
2023-01-27T13:59:25.492Z,11.82
2023-01-27T14:02:22.856Z,12.65
2023-01-27T14:05:08.692Z,23.10
2023-01-27T14:07:44.154Z,12.32
2023-01-27T14:10:29.699Z,14.50
2023-01-27T14:13:18.827Z,14.43
2023-01-27T14:16:02.290Z,15.90
2023-01-27T14:21:10.946Z,27.45
2023-01-27T14:23:47.195Z,20.67
2023-01-27T14:27:06.378Z,18.45
2023-01-27T14:29:59.782Z,22.98
2023-01-27T14:32:46.294Z,23.50
2023-01-27T14:35:29.380Z,21.15
2023-01-27T14:38:28.136Z,23.40
2023-01-27T14:41:37.942Z,30.55
2023-01-27T14:44:21.717Z,29.92
2023-01-27T14:46:50.530Z,31.25
2023-01-27T14:49:42.277Z,42.35
2023-01-27T14:52:33.655Z,38.33
2023-01-27T14:55:29.292Z,47.63
2023-01-27T14:59:00.173Z,40.03
2023-01-27T15:01:33.914Z,36.65
2023-01-27T15:04:18.585Z,29.42
2023-01-27T15:06:48.633Z,29.60
2023-01-27T15:09:24.979Z,28.65
2023-01-27T15:12:15.107Z,24.23
2023-01-27T15:15:03.256Z,26.98
2023-01-27T15:17:53.187Z,24.75
2023-01-27T15:20:34.499Z,27.17
2023-01-27T15:23:27.829Z,27.05
2023-01-27T15:26:02.162Z,27.02
2023-01-27T15:28:32.858Z,30.13
2023-01-27T15:31:21.687Z,28.77
2023-01-27T15:34:05.497Z,28.45
2023-01-27T15:39:20.238Z,24.85
2023-01-27T15:42:02.198Z,28.25
2023-01-27T15:44:31.576Z,33.10
2023-01-27T15:47:11.919Z,42.13
2023-01-27T15:49:48.461Z,35.22
2023-01-27T15:52:26.563Z,29.48
2023-01-27T15:54:56.897Z,23.85
2023-01-27T15:57:39.165Z,21.88
2023-01-27T16:00:21.396Z,43.65
2023-01-27T16:02:54.755Z,47.45
2023-01-27T16:05:29.222Z,48.67
2023-01-27T16:08:04.504Z,50.50
2023-01-27T16:10:35.745Z,57.88
2023-01-27T16:13:18.453Z,53.22
2023-01-27T16:15:47.178Z,52.50
2023-01-27T16:18:16.168Z,54.58
2023-01-27T16:20:53.315Z,56.65
2023-01-27T16:23:25.135Z,64.55
2023-01-27T16:26:03.546Z,65.65
2023-01-27T16:28:34.458Z,65.65
2023-01-27T16:31:25.155Z,78.65
2023-01-27T16:33:58.195Z,46.30
2023-01-27T16:36:35.700Z,43.05
2023-01-27T16:39:22.569Z,38.30
2023-01-27T16:41:55.931Z,39.88
2023-01-27T16:47:29.441Z,30.70
2023-01-27T16:49:59.941Z,38.72
2023-01-27T16:52:41.596Z,53.35
2023-01-27T16:55:24.281Z,50.22
2023-01-27T16:57:54.649Z,45.83
2023-01-27T17:00:28.408Z,36.13
2023-01-27T17:02:59.851Z,33.38
2023-01-27T17:05:28.875Z,33.45
2023-01-27T17:08:15.595Z,32.38
2023-01-27T17:10:56.522Z,35.33
2023-01-27T17:13:34.601Z,39.33
2023-01-27T17:16:53.827Z,42.03
2023-01-27T17:19:30.719Z,42.65
2023-01-27T17:21:59.905Z,48.28
2023-01-27T17:24:49.994Z,60.97
2023-01-27T17:27:34.418Z,97.28
2023-01-27T17:30:25.184Z,69.93
2023-01-27T17:32:59.594Z,84.70
2023-01-27T17:35:34.392Z,62.53
2023-01-27T17:38:13.357Z,61.97
2023-01-27T17:40:46.136Z,50.95
2023-01-27T17:43:32.090Z,47.50
2023-01-27T17:46:09.812Z,54.47
2023-01-27T17:48:55.156Z,56.80
2023-01-27T17:51:35.829Z,51.22
2023-01-27T17:54:18.161Z,45.20
2023-01-27T17:56:46.637Z,56.95
2023-01-27T17:59:23.364Z,55.08
2023-01-27T18:01:54.771Z,60.53
2023-01-27T18:04:25.055Z,64.78
2023-01-27T18:06:53.622Z,49.95
2023-01-27T18:09:27.096Z,47.58
2023-01-27T18:12:04.339Z,46.03
2023-01-27T18:14:35.634Z,35.60
2023-01-27T18:17:03.740Z,33.58
2023-01-27T18:19:32.826Z,30.23
2023-01-27T18:22:02.738Z,35.42
2023-01-27T18:24:31.133Z,36.63
2023-01-27T18:26:59.159Z,39.90
2023-01-27T18:29:33.077Z,42.72
2023-01-27T18:32:19.762Z,65.82
2023-01-27T18:34:56.100Z,47.50
2023-01-27T18:37:34.023Z,56.53
2023-01-27T18:40:22.049Z,41.30
2023-01-27T18:42:54.055Z,44.92
2023-01-27T18:45:22.478Z,49.53
2023-01-27T18:47:50.643Z,42.08
2023-01-27T18:50:26.168Z,38.30
2023-01-27T18:52:55.329Z,44.97
2023-01-27T18:55:30.775Z,47.47
2023-01-27T18:58:00.453Z,32.17
2023-01-27T19:00:37.830Z,33.58
2023-01-27T19:03:12.728Z,38.03
2023-01-27T19:05:41.271Z,36.85
2023-01-27T19:08:15.034Z,26.30
2023-01-27T19:10:44.256Z,27.17
2023-01-27T19:13:17.804Z,24.85
2023-01-27T19:15:50.224Z,24.42
2023-01-27T19:18:29.334Z,24.00
2023-01-27T19:20:57.589Z,31.67
2023-01-27T19:23:26.267Z,35.53
2023-01-27T19:25:58.614Z,38.35
2023-01-27T19:28:32.158Z,36.30
2023-01-27T19:33:33.149Z,27.98
2023-01-27T19:36:13.253Z,25.30
2023-01-27T19:38:41.751Z,29.35
2023-01-27T19:41:10.887Z,27.80
2023-01-27T19:43:39.616Z,29.77
2023-01-27T19:46:14.709Z,34.88
2023-01-27T19:48:43.799Z,49.33
2023-01-27T19:51:12.094Z,44.08
2023-01-27T19:53:40.217Z,39.88
2023-01-27T19:56:21.119Z,41.58
2023-01-27T19:58:53.794Z,34.85
2023-01-27T20:01:24.741Z,24.80
2023-01-27T20:03:54.741Z,28.70
2023-01-27T20:06:28.271Z,28.25
2023-01-27T20:08:59.944Z,25.92
2023-01-27T20:11:39.730Z,29.73
2023-01-27T20:14:15.697Z,22.45
2023-01-27T20:16:44.751Z,25.98
2023-01-27T20:19:16.905Z,22.85
2023-01-27T20:21:46.649Z,25.17
2023-01-27T20:24:17.073Z,23.25
2023-01-27T20:26:46.414Z,22.92
2023-01-27T20:29:14.557Z,23.17
2023-01-27T20:31:43.309Z,21.13
2023-01-27T20:34:11.610Z,22.27
2023-01-27T20:36:40.203Z,26.73
2023-01-27T20:39:08.379Z,25.63
2023-01-27T20:41:36.655Z,31.02
2023-01-27T20:44:04.683Z,27.85
2023-01-27T20:46:32.780Z,23.85
2023-01-27T20:49:01.960Z,23.77
2023-01-27T20:51:30.396Z,22.67
2023-01-27T20:54:00.817Z,27.52
2023-01-27T20:56:29.596Z,31.83
2023-01-27T20:58:58.537Z,31.83
2023-01-27T21:01:27.427Z,33.75
2023-01-27T21:03:55.640Z,39.67
2023-01-27T21:06:23.761Z,44.28
2023-01-27T21:08:52.385Z,50.35
2023-01-27T21:11:22.014Z,60.67
2023-01-27T21:13:52.481Z,58.00
2023-01-27T21:16:21.404Z,69.88
2023-01-27T21:18:50.596Z,72.10
2023-01-27T21:21:27.626Z,67.82
2023-01-27T21:23:56.909Z,63.75
2023-01-27T21:26:38.813Z,57.47
2023-01-27T21:29:07.763Z,49.78
2023-01-27T21:31:47.333Z,60.22
2023-01-27T21:34:16.515Z,52.88
2023-01-27T21:36:44.619Z,58.38
2023-01-27T21:39:13.582Z,55.60
2023-01-27T21:41:53.824Z,58.40
2023-01-27T21:44:46.255Z,53.28
2023-01-27T21:47:17.251Z,46.63
2023-01-27T21:50:02.584Z,39.50
2023-01-27T21:52:46.472Z,48.95
2023-01-27T21:55:26.151Z,61.17
2023-01-27T21:57:55.930Z,55.10
2023-01-27T22:00:27.248Z,50.63
2023-01-27T22:03:03.368Z,46.05
2023-01-27T22:05:33.297Z,40.40
2023-01-27T22:08:06.749Z,44.00
2023-01-27T22:10:55.449Z,44.75
2023-01-27T22:13:23.458Z,41.95
2023-01-27T22:15:52.037Z,55.30
2023-01-27T22:18:20.187Z,34.90
2023-01-27T22:20:49.467Z,36.13
2023-01-27T22:23:19.281Z,28.65
2023-01-27T22:25:51.304Z,28.55
2023-01-27T22:28:20.033Z,27.98
2023-01-27T22:30:49.126Z,25.00
2023-01-27T22:33:17.234Z,23.42
2023-01-27T22:35:45.463Z,27.98
2023-01-27T22:38:13.520Z,31.92
2023-01-27T22:40:42.204Z,36.00
2023-01-27T22:43:10.828Z,26.73
2023-01-27T22:45:39.857Z,26.02
2023-01-27T22:48:09.038Z,29.20
2023-01-27T22:50:40.592Z,30.55
2023-01-27T22:53:09.220Z,32.70
2023-01-27T22:55:37.220Z,33.17
2023-01-27T22:58:05.703Z,35.35
2023-01-27T23:00:33.898Z,34.03
2023-01-27T23:03:02.436Z,33.17
2023-01-27T23:05:31.277Z,38.10
2023-01-27T23:07:59.978Z,35.38
2023-01-27T23:10:28.087Z,32.30
2023-01-27T23:12:56.222Z,29.77
2023-01-27T23:15:24.595Z,37.08
2023-01-27T23:17:52.748Z,32.60
2023-01-27T23:20:21.497Z,36.58
2023-01-27T23:22:49.943Z,51.17
2023-01-27T23:25:19.077Z,57.88
2023-01-27T23:27:47.097Z,63.47
2023-01-27T23:30:15.151Z,44.50
2023-01-27T23:32:43.208Z,45.35
2023-01-27T23:35:12.179Z,38.03
2023-01-27T23:37:40.362Z,38.72
2023-01-27T23:40:09.009Z,43.53
2023-01-27T23:42:37.164Z,36.55
2023-01-27T23:45:05.624Z,44.55
2023-01-27T23:47:34.165Z,47.50
2023-01-27T23:50:02.259Z,54.53
2023-01-27T23:52:34.616Z,50.97
2023-01-27T23:55:03.258Z,56.60
2023-01-27T23:57:31.800Z,54.55
